createdAt,value
2022-12-04T00:01:12.314Z,4.93
2022-12-04T00:03:39.546Z,3.42
2022-12-04T00:06:13.709Z,5.10
2022-12-04T00:08:41.251Z,3.70
2022-12-04T00:11:09.351Z,3.67
2022-12-04T00:13:36.509Z,5.13
2022-12-04T00:16:12.689Z,4.90
2022-12-04T00:18:39.661Z,4.30
2022-12-04T00:21:08.090Z,5.28
2022-12-04T00:23:35.823Z,3.78
2022-12-04T00:26:23.288Z,2.95
2022-12-04T00:28:51.213Z,2.47
2022-12-04T00:31:22.404Z,2.58
2022-12-04T00:33:49.435Z,3.38
2022-12-04T00:36:19.248Z,4.38
2022-12-04T00:38:46.411Z,4.43
2022-12-04T00:41:15.438Z,5.50
2022-12-04T00:46:10.036Z,3.17
2022-12-04T00:48:36.953Z,2.78
2022-12-04T00:51:12.291Z,3.58
2022-12-04T00:53:39.583Z,2.63
2022-12-04T00:56:08.552Z,3.00
2022-12-04T01:01:11.125Z,2.65
2022-12-04T01:03:38.611Z,3.05
2022-12-04T01:06:06.060Z,3.72
2022-12-04T01:08:33.037Z,2.95
2022-12-04T01:11:00.047Z,3.88
2022-12-04T01:13:27.047Z,3.17
2022-12-04T01:15:53.841Z,3.90
2022-12-04T01:18:20.754Z,3.88
2022-12-04T01:20:51.856Z,2.85
2022-12-04T01:23:19.452Z,3.47
2022-12-04T01:25:57.482Z,3.35
2022-12-04T01:28:24.879Z,3.70
2022-12-04T01:31:06.859Z,3.58
2022-12-04T01:36:02.282Z,3.55
2022-12-04T01:38:29.607Z,3.70
2022-12-04T01:40:57.230Z,2.90
2022-12-04T01:43:25.123Z,3.22
2022-12-04T01:45:56.617Z,2.92
2022-12-04T01:48:23.362Z,2.85
2022-12-04T01:50:52.283Z,2.90
2022-12-04T01:53:19.523Z,3.15
2022-12-04T01:55:46.897Z,2.72
2022-12-04T01:58:14.084Z,2.53
2022-12-04T02:00:40.907Z,2.38
2022-12-04T02:03:07.844Z,2.92
2022-12-04T02:05:34.738Z,2.90
2022-12-04T02:08:03.261Z,3.40
2022-12-04T02:10:46.372Z,4.47
2022-12-04T02:13:35.774Z,3.50
2022-12-04T02:16:14.344Z,2.97
2022-12-04T02:18:51.646Z,2.75
2022-12-04T02:21:32.221Z,1.95
2022-12-04T02:24:20.594Z,2.58
2022-12-04T02:26:51.813Z,2.00
2022-12-04T02:29:58.049Z,2.00
2022-12-04T02:32:43.691Z,2.50
2022-12-04T02:35:23.400Z,2.42
2022-12-04T02:37:54.885Z,2.45
2022-12-04T02:40:25.912Z,2.30
2022-12-04T02:43:00.449Z,2.97
2022-12-04T02:45:32.675Z,2.92
2022-12-04T02:48:01.595Z,3.22
2022-12-04T02:52:59.645Z,1.85
2022-12-04T02:55:31.476Z,2.65
2022-12-04T02:58:04.726Z,1.58
2022-12-04T03:00:32.474Z,1.65
2022-12-04T03:03:07.398Z,1.42
2022-12-04T03:06:00.133Z,1.70
2022-12-04T03:08:31.130Z,1.30
2022-12-04T03:11:00.774Z,1.60
2022-12-04T03:13:38.658Z,2.10
2022-12-04T03:16:10.499Z,1.92
2022-12-04T03:18:47.181Z,1.73
2022-12-04T03:21:17.450Z,2.25
2022-12-04T03:24:05.483Z,1.98
2022-12-04T03:26:48.210Z,1.80
2022-12-04T03:29:21.768Z,2.03
2022-12-04T03:31:57.958Z,2.28
2022-12-04T03:35:06.453Z,1.35
2022-12-04T03:37:41.104Z,1.38
2022-12-04T03:40:24.206Z,1.20
2022-12-04T03:43:01.026Z,1.33
2022-12-04T03:45:35.546Z,1.38
2022-12-04T03:48:07.530Z,1.42
2022-12-04T03:51:03.671Z,1.63
2022-12-04T03:53:38.730Z,1.13
2022-12-04T03:56:09.305Z,1.35
2022-12-04T03:58:36.861Z,1.23
2022-12-04T04:01:05.437Z,1.40
2022-12-04T04:03:35.790Z,1.40
2022-12-04T04:06:08.474Z,0.80
2022-12-04T04:08:37.604Z,1.00
2022-12-04T04:11:07.619Z,1.10
2022-12-04T04:14:02.018Z,1.10
2022-12-04T04:16:50.461Z,0.93
2022-12-04T04:19:37.474Z,1.38
2022-12-04T04:22:26.290Z,1.42
2022-12-04T04:25:14.194Z,1.58
2022-12-04T04:27:40.941Z,1.00
2022-12-04T04:30:09.307Z,1.17
2022-12-04T04:32:44.960Z,1.45
2022-12-04T04:35:16.918Z,1.58
2022-12-04T04:37:43.673Z,1.85
2022-12-04T04:40:44.072Z,1.42
2022-12-04T04:43:20.580Z,1.30
2022-12-04T04:46:05.800Z,1.48
2022-12-04T04:48:33.289Z,1.70
2022-12-04T04:51:01.222Z,1.25
2022-12-04T04:53:36.554Z,1.30
2022-12-04T04:58:31.227Z,1.50
2022-12-04T05:01:18.624Z,0.95
2022-12-04T05:03:45.675Z,1.25
2022-12-04T05:06:12.667Z,1.15
2022-12-04T05:08:39.515Z,1.77
2022-12-04T05:11:06.495Z,1.13
2022-12-04T05:13:33.395Z,1.10
2022-12-04T05:16:05.119Z,1.55
2022-12-04T05:18:32.421Z,1.58
2022-12-04T05:20:59.296Z,2.25
2022-12-04T05:23:26.110Z,1.20
2022-12-04T05:26:00.411Z,1.42
2022-12-04T05:28:27.758Z,1.75
2022-12-04T05:30:56.408Z,2.40
2022-12-04T05:33:23.548Z,2.00
2022-12-04T05:36:00.157Z,2.10
2022-12-04T05:38:26.930Z,1.83
2022-12-04T05:40:53.758Z,2.00
2022-12-04T05:43:20.492Z,1.75
2022-12-04T05:45:47.231Z,1.92
2022-12-04T05:48:13.939Z,1.85
2022-12-04T05:50:40.720Z,1.60
2022-12-04T05:53:07.565Z,1.42
2022-12-04T05:55:34.324Z,2.00
2022-12-04T05:58:01.211Z,2.00
2022-12-04T06:00:28.681Z,2.05
2022-12-04T06:02:55.460Z,2.53
2022-12-04T06:05:22.210Z,1.85
2022-12-04T06:07:48.952Z,1.80
2022-12-04T06:10:15.822Z,2.17
2022-12-04T06:12:42.641Z,1.90
2022-12-04T06:15:09.867Z,2.10
2022-12-04T06:17:36.653Z,2.15
2022-12-04T06:20:09.589Z,2.03
2022-12-04T06:22:38.192Z,2.70
2022-12-04T06:25:05.277Z,2.60
2022-12-04T06:27:32.042Z,2.28
2022-12-04T06:29:59.097Z,2.70
2022-12-04T06:32:26.497Z,2.47
2022-12-04T06:34:54.096Z,2.65
2022-12-04T06:37:22.569Z,2.90
2022-12-04T06:39:49.328Z,3.72
2022-12-04T06:42:16.599Z,3.47
2022-12-04T06:44:43.343Z,3.85
2022-12-04T06:47:10.224Z,3.58
2022-12-04T06:49:37.033Z,3.33
2022-12-04T06:52:03.969Z,3.22
2022-12-04T06:54:30.761Z,3.50
2022-12-04T06:56:57.554Z,3.80
2022-12-04T06:59:24.355Z,4.53
2022-12-04T07:01:51.200Z,4.57
2022-12-04T07:04:18.132Z,3.88
2022-12-04T07:06:44.920Z,4.78
2022-12-04T07:09:14.949Z,4.15
2022-12-04T07:11:43.100Z,4.00
2022-12-04T07:14:10.261Z,3.42
2022-12-04T07:16:41.211Z,3.33
2022-12-04T07:19:13.845Z,4.72
2022-12-04T07:21:41.734Z,3.42
2022-12-04T07:24:09.118Z,3.35
2022-12-04T07:26:35.994Z,2.33
2022-12-04T07:29:02.752Z,2.50
2022-12-04T07:31:30.233Z,2.53
2022-12-04T07:33:57.941Z,3.22
2022-12-04T07:36:26.145Z,3.40
2022-12-04T07:38:53.146Z,3.47
2022-12-04T07:41:20.256Z,3.33
2022-12-04T07:43:47.545Z,2.70
2022-12-04T07:46:19.819Z,2.67
2022-12-04T07:48:46.933Z,3.45
2022-12-04T07:51:16.576Z,4.20
2022-12-04T07:53:43.888Z,3.28
2022-12-04T07:56:11.957Z,2.40
2022-12-04T07:58:40.329Z,2.67
2022-12-04T08:01:07.277Z,2.42
2022-12-04T08:03:34.135Z,3.17
2022-12-04T08:06:02.211Z,2.35
2022-12-04T08:08:47.862Z,3.08
2022-12-04T08:11:19.635Z,2.70
2022-12-04T08:13:46.386Z,2.83
2022-12-04T08:16:14.046Z,2.35
2022-12-04T08:18:41.702Z,3.00
2022-12-04T08:21:11.333Z,1.95
2022-12-04T08:23:39.210Z,1.63
2022-12-04T08:26:06.976Z,1.85
2022-12-04T08:28:34.184Z,1.98
2022-12-04T08:31:06.427Z,3.00
2022-12-04T08:33:33.889Z,2.15
2022-12-04T08:36:00.908Z,1.80
2022-12-04T08:38:28.158Z,1.58
2022-12-04T08:40:55.220Z,1.65
2022-12-04T08:43:21.998Z,1.58
2022-12-04T08:45:59.654Z,2.05
2022-12-04T08:48:27.430Z,2.03
2022-12-04T08:50:54.695Z,1.60
2022-12-04T08:53:22.499Z,1.50
2022-12-04T08:55:49.764Z,2.03
2022-12-04T08:58:17.358Z,1.95
2022-12-04T09:00:46.868Z,1.80
2022-12-04T09:03:18.876Z,1.98
2022-12-04T09:05:47.185Z,3.10
2022-12-04T09:08:16.991Z,1.88
2022-12-04T09:10:44.414Z,2.72
2022-12-04T09:13:11.506Z,2.22
2022-12-04T09:15:42.069Z,1.70
2022-12-04T09:18:10.122Z,1.77
2022-12-04T09:20:37.359Z,1.80
2022-12-04T09:23:05.599Z,2.10
2022-12-04T09:25:36.912Z,2.20
2022-12-04T09:28:04.211Z,1.52
2022-12-04T09:30:31.221Z,1.88
2022-12-04T09:32:58.124Z,1.70
2022-12-04T09:35:25.213Z,1.73
2022-12-04T09:37:52.822Z,1.60
2022-12-04T09:40:37.237Z,1.58
2022-12-04T09:43:32.982Z,1.88
2022-12-04T09:46:09.090Z,2.38
2022-12-04T09:48:38.961Z,2.63
2022-12-04T09:51:06.634Z,1.50
2022-12-04T09:54:04.207Z,1.30
2022-12-04T09:56:31.502Z,2.35
2022-12-04T09:59:26.668Z,1.85
2022-12-04T10:02:33.234Z,2.35
2022-12-04T10:05:00.519Z,3.17
2022-12-04T10:07:41.701Z,2.67
2022-12-04T10:10:13.354Z,2.33
2022-12-04T10:12:52.925Z,1.95
2022-12-04T10:15:22.710Z,2.15
2022-12-04T10:18:15.668Z,1.63
2022-12-04T10:21:04.219Z,1.90
2022-12-04T10:23:37.148Z,1.67
2022-12-04T10:26:05.454Z,2.33
2022-12-04T10:28:36.822Z,2.08
2022-12-04T10:31:05.314Z,1.80
2022-12-04T10:36:20.426Z,2.00
2022-12-04T10:39:00.851Z,1.80
2022-12-04T10:41:42.913Z,2.70
2022-12-04T10:44:19.799Z,3.28
2022-12-04T10:46:47.391Z,2.85
2022-12-04T10:49:24.926Z,2.17
2022-12-04T10:51:52.354Z,2.70
2022-12-04T10:54:31.614Z,2.58
2022-12-04T10:57:00.532Z,2.38
2022-12-04T10:59:28.062Z,2.53
2022-12-04T11:02:19.791Z,3.05
2022-12-04T11:04:59.162Z,2.47
2022-12-04T11:07:37.044Z,2.85
2022-12-04T11:10:07.999Z,1.58
2022-12-04T11:12:34.916Z,1.85
2022-12-04T11:15:07.448Z,2.35
2022-12-04T11:17:34.304Z,2.42
2022-12-04T11:20:04.547Z,2.40
2022-12-04T11:22:31.825Z,2.50
2022-12-04T11:24:59.568Z,2.88
2022-12-04T11:27:31.801Z,3.13
2022-12-04T11:30:02.348Z,2.63
2022-12-04T11:32:32.079Z,2.70
2022-12-04T11:35:01.845Z,4.10
2022-12-04T11:37:32.178Z,3.22
2022-12-04T11:39:59.220Z,2.80
2022-12-04T11:42:28.005Z,3.63
2022-12-04T11:44:57.198Z,3.03
2022-12-04T11:47:27.272Z,3.90
2022-12-04T11:50:25.423Z,3.65
2022-12-04T11:53:12.743Z,3.75
2022-12-04T11:56:13.293Z,4.15
2022-12-04T11:59:06.259Z,2.60
2022-12-04T12:01:47.578Z,2.97
2022-12-04T12:04:43.694Z,2.53
2022-12-04T12:07:32.738Z,3.28
2022-12-04T12:10:03.025Z,3.22
2022-12-04T12:12:52.541Z,3.70
2022-12-04T12:15:45.698Z,2.80
2022-12-04T12:18:33.486Z,2.60
2022-12-04T12:21:11.389Z,2.53
2022-12-04T12:24:15.863Z,3.50
2022-12-04T12:27:01.288Z,5.15
2022-12-04T12:30:08.292Z,3.47
2022-12-04T12:32:56.305Z,3.35
2022-12-04T12:37:54.167Z,2.25
2022-12-04T12:40:34.323Z,2.88
2022-12-04T12:43:05.911Z,4.45
2022-12-04T12:46:00.501Z,3.95
2022-12-04T12:48:32.891Z,3.70
2022-12-04T12:51:30.081Z,3.88
2022-12-04T12:54:05.209Z,3.80
2022-12-04T12:56:49.211Z,3.42
2022-12-04T12:59:26.935Z,4.03
2022-12-04T13:01:59.956Z,3.08
2022-12-04T13:04:42.203Z,3.22
2022-12-04T13:07:21.060Z,3.78
2022-12-04T13:10:04.503Z,3.30
2022-12-04T13:12:43.422Z,4.20
2022-12-04T13:15:18.250Z,4.20
2022-12-04T13:17:47.256Z,4.57
2022-12-04T13:20:20.858Z,3.10
2022-12-04T13:23:09.474Z,4.32
2022-12-04T13:26:04.945Z,4.45
2022-12-04T13:28:46.679Z,2.88
2022-12-04T13:31:28.134Z,3.88
2022-12-04T13:34:07.074Z,3.08
2022-12-04T13:36:58.465Z,3.72
2022-12-04T13:39:25.215Z,3.78
2022-12-04T13:42:03.615Z,4.03
2022-12-04T13:44:31.937Z,3.17
2022-12-04T13:47:03.861Z,3.08
2022-12-04T13:49:35.780Z,4.18
2022-12-04T13:52:05.611Z,3.17
2022-12-04T13:54:37.141Z,3.47
2022-12-04T13:57:12.932Z,3.78
2022-12-04T13:59:40.237Z,4.07
2022-12-04T14:02:37.884Z,4.25
2022-12-04T14:05:07.434Z,3.65
2022-12-04T14:07:37.591Z,3.20
2022-12-04T14:10:14.903Z,3.30
2022-12-04T14:12:43.856Z,3.60
2022-12-04T14:15:23.921Z,3.20
2022-12-04T14:18:03.139Z,3.13
2022-12-04T14:20:31.612Z,2.70
2022-12-04T14:23:17.978Z,2.53
2022-12-04T14:25:44.813Z,3.15
2022-12-04T14:28:35.957Z,3.60
2022-12-04T14:31:19.552Z,2.90
2022-12-04T14:34:18.709Z,3.33
2022-12-04T14:41:36.818Z,3.90
2022-12-04T14:44:30.908Z,3.78
2022-12-04T14:47:34.146Z,3.47
2022-12-04T14:50:25.503Z,3.80
2022-12-04T14:53:33.238Z,3.50
2022-12-04T14:56:29.340Z,3.50
2022-12-04T14:58:56.872Z,3.75
2022-12-04T15:01:29.385Z,3.90
2022-12-04T15:03:59.753Z,3.08
2022-12-04T15:06:29.213Z,3.35
2022-12-04T15:09:19.998Z,3.83
2022-12-04T15:12:15.992Z,4.07
2022-12-04T15:14:44.936Z,4.28
2022-12-04T15:17:12.923Z,3.60
2022-12-04T15:19:40.476Z,3.65
2022-12-04T15:22:21.307Z,3.75
2022-12-04T15:24:48.103Z,3.92
2022-12-04T15:27:16.183Z,4.90
2022-12-04T15:29:48.352Z,3.75
2022-12-04T15:32:16.789Z,3.67
2022-12-04T15:34:50.143Z,3.75
2022-12-04T15:37:22.087Z,4.63
2022-12-04T15:39:51.821Z,4.13
2022-12-04T15:42:28.693Z,3.45
2022-12-04T15:45:12.691Z,4.60
2022-12-04T15:47:42.235Z,4.13
2022-12-04T15:50:17.763Z,3.08
2022-12-04T15:53:09.028Z,4.07
2022-12-04T15:55:47.126Z,4.40
2022-12-04T15:58:30.611Z,3.45
2022-12-04T16:01:07.967Z,4.55
2022-12-04T16:03:44.373Z,3.90
2022-12-04T16:06:28.946Z,4.35
2022-12-04T16:09:01.001Z,3.85
2022-12-04T16:11:29.798Z,4.63
2022-12-04T16:14:08.836Z,4.78
2022-12-04T16:16:37.570Z,4.40
2022-12-04T16:19:28.781Z,5.40
2022-12-04T16:21:55.939Z,4.22
2022-12-04T16:24:22.986Z,3.97
2022-12-04T16:26:51.129Z,4.05
2022-12-04T16:29:18.125Z,3.63
2022-12-04T16:31:44.939Z,4.03
2022-12-04T16:34:13.005Z,2.97
2022-12-04T16:36:40.532Z,3.40
2022-12-04T16:39:07.572Z,3.63
2022-12-04T16:42:30.468Z,3.85
2022-12-04T16:44:58.250Z,4.57
2022-12-04T16:47:25.270Z,3.88
2022-12-04T16:49:53.394Z,3.83
2022-12-04T16:52:20.600Z,3.60
2022-12-04T16:54:47.596Z,4.40
2022-12-04T16:57:14.370Z,4.07
2022-12-04T16:59:41.134Z,3.67
2022-12-04T17:02:15.910Z,4.10
2022-12-04T17:04:43.020Z,4.22
2022-12-04T17:07:09.810Z,3.97
2022-12-04T17:09:36.642Z,4.00
2022-12-04T17:12:03.441Z,4.35
2022-12-04T17:14:30.214Z,4.72
2022-12-04T17:16:58.843Z,4.70
2022-12-04T17:19:25.579Z,4.47
2022-12-04T17:21:52.415Z,4.47
2022-12-04T17:24:19.201Z,4.35
2022-12-04T17:26:45.974Z,5.40
2022-12-04T17:29:12.857Z,4.13
2022-12-04T17:31:39.760Z,4.05
2022-12-04T17:34:06.557Z,3.90
2022-12-04T17:36:33.358Z,3.75
2022-12-04T17:39:03.451Z,4.10
2022-12-04T17:41:30.377Z,4.47
2022-12-04T17:43:59.615Z,4.28
2022-12-04T17:46:26.707Z,3.65
2022-12-04T17:48:56.318Z,3.95
2022-12-04T17:51:24.329Z,3.88
2022-12-04T17:53:51.590Z,3.70
2022-12-04T17:56:23.352Z,3.58
2022-12-04T17:58:50.586Z,4.00
2022-12-04T18:01:27.877Z,2.80
2022-12-04T18:04:00.473Z,3.67
2022-12-04T18:06:32.462Z,3.83
2022-12-04T18:08:59.442Z,3.72
2022-12-04T18:11:29.126Z,3.33
2022-12-04T18:13:58.212Z,3.80
2022-12-04T18:16:25.535Z,4.30
2022-12-04T18:19:00.043Z,4.85
2022-12-04T18:21:26.924Z,4.13
2022-12-04T18:23:57.074Z,2.90
2022-12-04T18:26:27.013Z,2.70
2022-12-04T18:28:57.251Z,3.22
2022-12-04T18:31:24.097Z,3.50
2022-12-04T18:33:51.249Z,3.33
2022-12-04T18:36:25.834Z,3.25
2022-12-04T18:39:01.979Z,3.40
2022-12-04T18:41:29.683Z,3.00
2022-12-04T18:43:56.706Z,3.70
2022-12-04T18:46:24.270Z,3.38
2022-12-04T18:48:53.984Z,4.53
2022-12-04T18:51:23.470Z,3.63
2022-12-04T18:53:52.023Z,1.90
2022-12-04T18:56:19.144Z,3.10
2022-12-04T18:58:47.036Z,3.03
2022-12-04T19:01:18.375Z,1.80
2022-12-04T19:03:46.527Z,2.78
2022-12-04T19:06:13.982Z,2.92
2022-12-04T19:08:43.390Z,2.72
2022-12-04T19:11:15.998Z,2.70
2022-12-04T19:13:43.080Z,3.17
2022-12-04T19:16:14.909Z,1.60
2022-12-04T19:18:42.579Z,2.75
2022-12-04T19:21:09.290Z,2.70
2022-12-04T19:23:36.051Z,2.50
2022-12-04T19:26:03.249Z,2.33
2022-12-04T19:28:30.257Z,1.85
2022-12-04T19:30:57.530Z,2.95
2022-12-04T19:33:24.934Z,2.33
2022-12-04T19:35:58.046Z,2.45
2022-12-04T19:38:25.551Z,1.83
2022-12-04T19:41:02.902Z,2.10
2022-12-04T19:43:29.830Z,2.47
2022-12-04T19:45:56.706Z,2.53
2022-12-04T19:48:23.560Z,2.08
2022-12-04T19:50:50.287Z,2.85
2022-12-04T19:53:17.501Z,2.67
2022-12-04T19:55:44.293Z,1.85
2022-12-04T19:58:11.149Z,2.67
2022-12-04T20:00:37.954Z,2.80
2022-12-04T20:03:04.753Z,2.28
2022-12-04T20:05:35.946Z,2.22
2022-12-04T20:10:28.539Z,2.35
2022-12-04T20:12:55.326Z,2.47
2022-12-04T20:15:22.141Z,3.03
2022-12-04T20:17:48.899Z,3.50
2022-12-04T20:20:15.778Z,3.17
2022-12-04T20:22:42.541Z,3.75
2022-12-04T20:25:09.448Z,3.78
2022-12-04T20:27:36.248Z,3.28
2022-12-04T20:30:04.919Z,4.82
2022-12-04T20:32:33.463Z,3.63
2022-12-04T20:35:00.237Z,3.47
2022-12-04T20:37:27.232Z,5.10
2022-12-04T20:39:54.767Z,2.92
2022-12-04T20:42:23.190Z,2.83
2022-12-04T20:44:50.014Z,3.25
2022-12-04T20:47:16.767Z,3.95
2022-12-04T20:49:43.589Z,2.70
2022-12-04T20:52:11.169Z,2.92
2022-12-04T20:54:41.595Z,2.40
2022-12-04T20:57:09.178Z,2.10
2022-12-04T20:59:35.969Z,2.38
2022-12-04T21:02:02.812Z,2.35
2022-12-04T21:04:29.521Z,2.42
2022-12-04T21:06:56.373Z,2.80
2022-12-04T21:09:24.444Z,2.70
2022-12-04T21:11:53.439Z,2.15
2022-12-04T21:14:41.899Z,3.35
2022-12-04T21:17:16.559Z,3.22
2022-12-04T21:19:43.329Z,3.13
2022-12-04T21:22:10.126Z,3.80
2022-12-04T21:24:39.176Z,3.28
2022-12-04T21:27:08.173Z,3.00
2022-12-04T21:29:36.933Z,3.53
2022-12-04T21:34:30.493Z,3.33
2022-12-04T21:36:57.371Z,3.55
2022-12-04T21:39:25.336Z,3.75
2022-12-04T21:42:11.827Z,3.72
2022-12-04T21:44:38.638Z,3.22
2022-12-04T21:47:05.390Z,2.70
2022-12-04T21:49:32.424Z,3.55
2022-12-04T21:51:59.560Z,3.28
2022-12-04T21:54:28.156Z,3.10
2022-12-04T21:56:55.314Z,3.75
2022-12-04T21:59:22.617Z,3.20
2022-12-04T22:01:49.501Z,3.28
2022-12-04T22:04:16.786Z,3.20
2022-12-04T22:06:43.543Z,4.00
2022-12-04T22:09:11.802Z,3.20
2022-12-04T22:11:41.539Z,3.60
2022-12-04T22:14:08.989Z,3.20
2022-12-04T22:16:41.534Z,2.92
2022-12-04T22:19:10.195Z,3.08
2022-12-04T22:21:36.970Z,3.35
2022-12-04T22:24:04.385Z,3.78
2022-12-04T22:26:32.045Z,3.35
2022-12-04T22:28:59.272Z,2.72
2022-12-04T22:31:28.016Z,3.15
2022-12-04T22:36:24.818Z,2.83
2022-12-04T22:39:08.730Z,2.35
2022-12-04T22:41:36.372Z,2.72
2022-12-04T22:44:03.397Z,2.92
2022-12-04T22:46:30.389Z,2.65
2022-12-04T22:48:58.688Z,2.70
2022-12-04T22:51:25.504Z,3.20
2022-12-04T22:53:54.693Z,3.13
2022-12-04T22:56:23.864Z,2.97
2022-12-04T22:58:51.928Z,2.70
2022-12-04T23:01:18.702Z,2.47
2022-12-04T23:03:46.802Z,2.63
2022-12-04T23:06:14.367Z,3.58
2022-12-04T23:08:42.332Z,3.35
2022-12-04T23:11:19.268Z,3.35
2022-12-04T23:13:54.305Z,2.92
2022-12-04T23:16:22.731Z,2.78
2022-12-04T23:18:49.864Z,3.15
2022-12-04T23:21:18.236Z,2.78
2022-12-04T23:23:46.332Z,3.20
2022-12-04T23:26:16.930Z,3.00
2022-12-04T23:28:43.752Z,3.38
2022-12-04T23:31:11.266Z,2.72
2022-12-04T23:33:39.162Z,2.78
2022-12-04T23:36:07.142Z,3.08
2022-12-04T23:38:36.253Z,2.90
2022-12-04T23:41:24.226Z,2.95
2022-12-04T23:43:52.394Z,2.60
2022-12-04T23:46:24.077Z,2.75
2022-12-04T23:48:50.806Z,4.00
2022-12-04T23:51:20.062Z,3.95
2022-12-04T23:53:47.643Z,3.92
2022-12-04T23:56:15.946Z,4.28
2022-12-04T23:58:43.605Z,3.40
